Time;durP1;ratioP1;P1;durP2;ratioP2;P2;SDS_P1;SDS_P2;PMS_P1;PMS_P2;Temp;Humidity;BMP_temperature;BMP_pressure;BME280_temperature;BME280_humidity;BME280_pressure;Samples;Min_cycle;Max_cycle;Signal;HPM_P1;HPM_P2
2023/03/06 00:02:16;;;;;;;;;;;;;;;2.00;94.17;100862.56;5027193;28;19948;-61
2023/03/06 00:04:41;;;;;;;;;;;;;;;2.00;94.56;100855.53;5025078;28;19960;-61
2023/03/06 00:07:06;;;;;;;;;;;;;;;1.99;94.62;100859.09;5030370;28;19921;-61
2023/03/06 00:09:31;;;;;;;;;;;;;;;1.99;94.77;100856.47;5028007;28;19963;-61
2023/03/06 00:11:56;;;;;;;;;;;;;;;1.99;94.83;100859.09;5033772;28;19923;-61
2023/03/06 00:14:22;;;;;;;;;;;;;;;1.98;94.61;100852.19;5021437;28;19917;-61
2023/03/06 00:16:47;;;;;;;;;;;;;;;1.97;94.58;100853.13;5030335;28;20008;-61
2023/03/06 00:19:12;;;;;;;;;;;;;;;1.95;94.27;100857.66;5029688;28;19917;-61
2023/03/06 00:21:39;;;;;;;;;;;;;;;1.95;94.40;100849.81;5025349;28;20302;-61
2023/03/06 00:24:04;;;;;;;;;;;;;;;1.95;94.51;100851.59;5026879;28;20290;-61
2023/03/06 00:26:29;;;;;;;;;;;;;;;1.92;94.71;100842.19;5028815;28;19932;-61
2023/03/06 00:28:54;;;;;;;;;;;;;;;1.91;94.97;100840.50;5028213;28;19921;-61
2023/03/06 00:31:20;;;;;;;;;;;;;;;1.91;95.14;100829.22;5028751;28;19956;-61
2023/03/06 00:33:45;;;;;;;;;;;;;;;1.92;95.07;100838.72;5022566;28;20382;-61
2023/03/06 00:36:10;;;;;;;;;;;;;;;1.92;95.09;100836.94;5028107;28;19924;-61
2023/03/06 00:38:36;;;;;;;;;;;;;;;1.89;95.38;100836.34;5028365;28;19924;-61
2023/03/06 00:41:09;;;;;;;;;;;;;;;1.87;95.29;100825.97;5023347;28;19921;-61
2023/03/06 00:43:34;;;;;;;;;;;;;;;1.84;95.37;100824.44;5026640;28;19924;-61
2023/03/06 00:45:59;;;;;;;;;;;;;;;1.81;95.33;100815.97;5028962;28;20347;-61
2023/03/06 00:48:24;;;;;;;;;;;;;;;1.77;95.37;100815.38;5025364;28;19921;-61
2023/03/06 00:50:50;;;;;;;;;;;;;;;1.73;95.49;100815.69;5020129;28;20402;-61
2023/03/06 00:53:15;;;;;;;;;;;;;;;1.69;95.46;100815.09;5025464;28;19918;-62
2023/03/06 00:55:42;;;;;;;;;;;;;;;1.65;95.56;100815.44;5026839;28;20240;-61
2023/03/06 00:58:07;;;;;;;;;;;;;;;1.60;95.60;100815.78;5024817;28;20004;-61
2023/03/06 01:00:33;;;;;;;;;;;;;;;1.53;95.43;100812.78;5024295;28;20063;-61
2023/03/06 01:02:58;;;;;;;;;;;;;;;1.47;95.49;100817.66;5024095;28;20290;-61
2023/03/06 01:05:23;;;;;;;;;;;;;;;1.42;95.56;100807.50;5018318;28;20283;-61
2023/03/06 01:07:48;;;;;;;;;;;;;;;1.41;95.92;100807.59;5026339;28;19956;-61
2023/03/06 01:10:14;;;;;;;;;;;;;;;1.40;96.07;100808.56;5025631;28;19924;-61
2023/03/06 01:12:39;;;;;;;;;;;;;;;1.38;96.29;100800.81;5017314;28;19937;-62
2023/03/06 01:15:04;;;;;;;;;;;;;;;1.37;96.32;100807.00;5023539;28;19916;-61
2023/03/06 01:17:29;;;;;;;;;;;;;;;1.32;96.66;100806.50;5020965;28;19921;-61
2023/03/06 01:19:55;;;;;;;;;;;;;;;1.27;96.57;100798.16;5022205;28;19921;-61
2023/03/06 01:22:21;;;;;;;;;;;;;;;1.21;96.59;100802.06;5021894;28;19925;-61
2023/03/06 01:24:46;;;;;;;;;;;;;;;1.13;96.37;100799.16;5027035;28;19963;-61
2023/03/06 01:27:11;;;;;;;;;;;;;;;1.04;96.24;100801.59;5025538;28;19992;-61
2023/03/06 01:29:36;;;;;;;;;;;;;;;0.94;96.14;100796.22;5020295;28;19924;-61
2023/03/06 01:32:01;;;;;;;;;;;;;;;0.87;95.99;100795.81;5026472;28;19957;-61
2023/03/06 01:34:26;;;;;;;;;;;;;;;0.83;96.25;100793.50;5024984;28;19917;-61
2023/03/06 01:36:52;;;;;;;;;;;;;;;0.81;96.30;100791.00;5025010;28;19955;-61
2023/03/06 01:39:17;;;;;;;;;;;;;;;0.79;96.56;100792.91;5020899;28;19928;-61
2023/03/06 01:41:42;;;;;;;;;;;;;;;0.81;96.78;100782.34;5020988;28;20290;-61
2023/03/06 01:44:09;;;;;;;;;;;;;;;0.81;96.91;100777.09;5027129;28;19913;-61
2023/03/06 01:46:41;;;;;;;;;;;;;;;0.80;97.22;100772.81;5025571;28;19960;-61
2023/03/06 01:49:24;;;;;;;;;;;;;;;0.78;97.09;100779.94;5023984;28;19913;-61
2023/03/06 01:51:52;;;;;;;;;;;;;;;0.77;97.50;100768.66;5023906;28;19916;-61
2023/03/06 01:54:21;;;;;;;;;;;;;;;0.79;97.67;100773.78;5025989;28;19936;-61
2023/03/06 01:56:48;;;;;;;;;;;;;;;0.78;97.80;100762.47;5026746;28;20362;-61
2023/03/06 01:59:13;;;;;;;;;;;;;;;0.77;97.72;100757.38;5018816;28;19936;-61
2023/03/06 02:01:40;;;;;;;;;;;;;;;0.76;98.02;100760.94;5025575;28;19966;-61
2023/03/06 02:04:05;;;;;;;;;;;;;;;0.72;98.17;100749.84;5023752;28;19928;-61
2023/03/06 02:06:32;;;;;;;;;;;;;;;0.71;98.32;100748.19;5027624;28;20007;-61
2023/03/06 02:08:57;;;;;;;;;;;;;;;0.71;98.66;100756.03;5020968;28;19913;-61
2023/03/06 02:11:23;;;;;;;;;;;;;;;0.71;98.77;100749.97;5027602;28;19967;-61
2023/03/06 02:13:49;;;;;;;;;;;;;;;0.66;98.83;100755.53;5021051;28;19954;-61
2023/03/06 02:16:15;;;;;;;;;;;;;;;0.55;98.57;100750.22;5026237;28;19917;-61
2023/03/06 02:18:41;;;;;;;;;;;;;;;0.49;98.43;100750.66;5024618;28;19935;-61
2023/03/06 02:21:19;;;;;;;;;;;;;;;0.43;98.54;100748.47;5016033;28;19918;-61
2023/03/06 02:23:47;;;;;;;;;;;;;;;0.39;98.40;100742.63;5016849;28;20000;-61
2023/03/06 02:26:12;;;;;;;;;;;;;;;0.36;98.58;100736.78;5021952;28;19917;-61
2023/03/06 02:28:38;;;;;;;;;;;;;;;0.35;98.86;100727.28;5017653;28;20127;-61
2023/03/06 02:31:04;;;;;;;;;;;;;;;0.33;98.97;100732.63;5021067;28;19917;-61
2023/03/06 02:33:29;;;;;;;;;;;;;;;0.33;99.21;100726.56;5021989;28;19924;-61
2023/03/06 02:35:56;;;;;;;;;;;;;;;0.30;99.38;100730.22;5024396;28;20008;-61
2023/03/06 02:38:24;;;;;;;;;;;;;;;0.26;99.41;100729.59;5023507;28;20334;-61
2023/03/06 02:40:50;;;;;;;;;;;;;;;0.21;99.50;100728.25;5024634;28;20365;-61
2023/03/06 02:43:17;;;;;;;;;;;;;;;0.14;99.39;100732.22;5022893;28;20571;-61
2023/03/06 02:45:45;;;;;;;;;;;;;;;0.08;99.13;100727.44;5019916;28;20012;-61
2023/03/06 02:48:11;;;;;;;;;;;;;;;0.04;98.83;100726.81;5019982;28;19913;-61
2023/03/06 02:50:36;;;;;;;;;;;;;;;0.05;98.47;100728.50;5025902;28;19939;-61
2023/03/06 02:53:02;;;;;;;;;;;;;;;0.08;98.34;100725.66;5028974;28;20382;-61
2023/03/06 02:55:27;;;;;;;;;;;;;;;0.09;98.06;100729.09;5026295;28;19917;-61
2023/03/06 02:57:52;;;;;;;;;;;;;;;0.06;97.87;100724.94;5024917;28;19924;-60
2023/03/06 03:00:18;;;;;;;;;;;;;;;0.05;97.77;100720.66;5026410;28;20011;-61
2023/03/06 03:02:43;;;;;;;;;;;;;;;0.07;97.67;100721.38;5024734;28;19917;-61
2023/03/06 03:05:09;;;;;;;;;;;;;;;0.08;97.71;100717.84;5025889;28;19917;-61
2023/03/06 03:07:34;;;;;;;;;;;;;;;0.14;97.63;100711.34;5022789;28;19983;-61
2023/03/06 03:09:59;;;;;;;;;;;;;;;0.21;97.74;100709.97;5023550;28;20325;-60
2023/03/06 03:12:24;;;;;;;;;;;;;;;0.27;97.79;100704.31;5021451;28;19917;-61
2023/03/06 03:14:49;;;;;;;;;;;;;;;0.32;97.86;100704.00;5024162;28;19936;-61
2023/03/06 03:17:15;;;;;;;;;;;;;;;0.37;98.08;100696.69;5026392;28;19944;-61
2023/03/06 03:19:40;;;;;;;;;;;;;;;0.40;98.13;100694.69;5027045;28;20012;-61
2023/03/06 03:22:05;;;;;;;;;;;;;;;0.40;98.44;100686.84;5026282;28;19952;-61
2023/03/06 03:24:30;;;;;;;;;;;;;;;0.36;98.45;100684.56;5021872;28;19921;-61
2023/03/06 03:26:55;;;;;;;;;;;;;;;0.28;98.51;100682.47;5029464;28;20444;-61
2023/03/06 03:29:21;;;;;;;;;;;;;;;0.21;98.50;100668.19;5028163;28;19921;-61
2023/03/06 03:31:46;;;;;;;;;;;;;;;0.13;98.42;100667.91;5029786;28;19925;-61
2023/03/06 03:34:11;;;;;;;;;;;;;;;0.08;98.71;100676.06;5029152;28;19921;-61
2023/03/06 03:36:37;;;;;;;;;;;;;;;0.07;98.92;100669.16;5031104;28;19966;-61
2023/03/06 03:39:02;;;;;;;;;;;;;;;0.05;99.25;100655.41;5029257;28;19929;-60
2023/03/06 03:41:28;;;;;;;;;;;;;;;0.03;99.35;100657.28;5025506;28;19917;-61
2023/03/06 03:43:53;;;;;;;;;;;;;;;0.04;99.76;100651.13;5025093;28;19923;-61
2023/03/06 03:46:20;;;;;;;;;;;;;;;0.04;100.00;100643.28;5030029;28;19917;-61
2023/03/06 03:48:45;;;;;;;;;;;;;;;0.06;100.00;100641.41;5029100;28;19996;-61
2023/03/06 03:51:11;;;;;;;;;;;;;;;0.10;100.00;100652.44;5027945;28;19997;-61
2023/03/06 03:53:37;;;;;;;;;;;;;;;0.13;100.00;100652.22;5023910;28;20024;-61
2023/03/06 03:56:02;;;;;;;;;;;;;;;0.13;100.00;100647.84;5024596;28;20001;-61
2023/03/06 03:58:27;;;;;;;;;;;;;;;0.09;100.00;100651.63;5030399;28;19936;-61
2023/03/06 04:00:53;;;;;;;;;;;;;;;0.03;100.00;100646.00;5022579;28;19917;-61
2023/03/06 04:03:18;;;;;;;;;;;;;;;-0.03;100.00;100647.25;5027144;28;20021;-60
2023/03/06 04:05:43;;;;;;;;;;;;;;;-0.05;100.00;100639.53;5023518;28;19921;-61
2023/03/06 04:08:08;;;;;;;;;;;;;;;-0.07;100.00;100640.56;5027848;28;19917;-61
2023/03/06 04:10:33;;;;;;;;;;;;;;;-0.10;100.00;100641.63;5025048;28;20382;-61
2023/03/06 04:12:59;;;;;;;;;;;;;;;-0.10;100.00;100631.19;5028035;28;19917;-61
2023/03/06 04:15:24;;;;;;;;;;;;;;;-0.10;100.00;100630.34;5026458;28;20453;-60
2023/03/06 04:17:49;;;;;;;;;;;;;;;-0.07;100.00;100635.34;5028525;28;19913;-61
2023/03/06 04:20:14;;;;;;;;;;;;;;;-0.05;100.00;100630.84;5023342;28;19926;-60
2023/03/06 04:22:39;;;;;;;;;;;;;;;-0.07;100.00;100625.75;5027708;28;19970;-61
2023/03/06 04:25:05;;;;;;;;;;;;;;;-0.05;100.00;100623.03;5019975;28;19914;-61
2023/03/06 04:27:30;;;;;;;;;;;;;;;-0.02;100.00;100625.41;5024892;28;19935;-61
2023/03/06 04:29:55;;;;;;;;;;;;;;;-0.01;100.00;100629.69;5025148;28;19940;-61
2023/03/06 04:32:21;;;;;;;;;;;;;;;0.00;100.00;100626.19;5027306;28;20012;-61
2023/03/06 04:34:46;;;;;;;;;;;;;;;0.04;100.00;100625.00;5028556;28;19917;-61
2023/03/06 04:37:22;;;;;;;;;;;;;;;0.05;100.00;100626.69;5028910;28;19917;-60
2023/03/06 04:39:47;;;;;;;;;;;;;;;0.08;100.00;100623.84;5023521;28;19922;-61
2023/03/06 04:42:12;;;;;;;;;;;;;;;0.10;100.00;100621.13;5020387;28;19925;-61
2023/03/06 04:44:37;;;;;;;;;;;;;;;0.12;100.00;100620.06;5017515;28;20011;-60
2023/03/06 04:47:03;;;;;;;;;;;;;;;0.14;100.00;100615.56;5028068;28;19924;-61
2023/03/06 04:49:28;;;;;;;;;;;;;;;0.17;100.00;100609.28;5026368;28;21145;-61
2023/03/06 04:51:53;;;;;;;;;;;;;;;0.20;100.00;100607.28;5028774;28;19925;-61
2023/03/06 04:54:18;;;;;;;;;;;;;;;0.24;100.00;100608.75;5028110;28;19961;-61
2023/03/06 04:56:44;;;;;;;;;;;;;;;0.27;100.00;100602.47;5029546;28;19917;-61
2023/03/06 04:59:09;;;;;;;;;;;;;;;0.30;100.00;100604.88;5026656;28;20421;-61
2023/03/06 05:01:34;;;;;;;;;;;;;;;0.31;100.00;100603.94;5023203;28;19917;-61
2023/03/06 05:03:59;;;;;;;;;;;;;;;0.34;100.00;100610.72;5015068;28;19921;-61
2023/03/06 05:06:24;;;;;;;;;;;;;;;0.36;100.00;100604.44;5022438;28;19935;-61
2023/03/06 05:08:49;;;;;;;;;;;;;;;0.38;100.00;100596.47;5020172;28;19921;-61
2023/03/06 05:11:15;;;;;;;;;;;;;;;0.40;100.00;100605.03;5024642;28;19917;-61
2023/03/06 05:13:40;;;;;;;;;;;;;;;0.39;100.00;100596.38;5025823;28;19928;-61
2023/03/06 05:16:05;;;;;;;;;;;;;;;0.40;100.00;100597.19;5023215;28;19917;-61
2023/03/06 05:18:32;;;;;;;;;;;;;;;0.41;100.00;100594.47;5021384;28;19928;-61
2023/03/06 05:20:58;;;;;;;;;;;;;;;0.44;100.00;100593.41;5023757;28;20368;-61
2023/03/06 05:23:24;;;;;;;;;;;;;;;0.44;100.00;100586.41;5028440;28;19917;-61
2023/03/06 05:25:49;;;;;;;;;;;;;;;0.47;100.00;100591.41;5027176;28;20286;-61
2023/03/06 05:28:15;;;;;;;;;;;;;;;0.48;100.00;100585.25;5016148;28;19914;-61
2023/03/06 05:30:40;;;;;;;;;;;;;;;0.50;100.00;100579.91;5021521;28;20012;-61
2023/03/06 05:33:05;;;;;;;;;;;;;;;0.52;100.00;100584.06;5017244;28;19972;-61
2023/03/06 05:35:30;;;;;;;;;;;;;;;0.54;100.00;100581.34;5021958;28;19921;-61
2023/03/06 05:37:55;;;;;;;;;;;;;;;0.56;100.00;100580.28;5026416;28;19913;-61
2023/03/06 05:40:21;;;;;;;;;;;;;;;0.58;100.00;100585.41;5025359;28;19940;-61
2023/03/06 05:42:46;;;;;;;;;;;;;;;0.59;100.00;100581.84;5024278;28;20533;-61
2023/03/06 05:45:11;;;;;;;;;;;;;;;0.60;100.00;100579.13;5025679;28;19917;-61
2023/03/06 05:47:36;;;;;;;;;;;;;;;0.63;100.00;100583.28;5026159;28;20408;-61
2023/03/06 05:50:02;;;;;;;;;;;;;;;0.66;100.00;100579.63;5021840;28;19913;-61
2023/03/06 05:52:27;;;;;;;;;;;;;;;0.67;100.00;100576.88;5016040;28;19956;-61
2023/03/06 05:54:53;;;;;;;;;;;;;;;0.68;100.00;100572.50;5022144;28;20445;-61
2023/03/06 05:57:22;;;;;;;;;;;;;;;0.70;100.00;100575.81;5024106;28;19917;-61
2023/03/06 05:59:48;;;;;;;;;;;;;;;0.72;100.00;100577.38;5025985;28;19960;-61
2023/03/06 06:02:13;;;;;;;;;;;;;;;0.73;100.00;100573.81;5023206;28;20382;-61
2023/03/06 06:04:38;;;;;;;;;;;;;;;0.69;100.00;100564.53;5012247;28;19920;-61
2023/03/06 06:07:05;;;;;;;;;;;;;;;0.76;100.00;100573.59;5026744;28;20004;-61
2023/03/06 06:09:30;;;;;;;;;;;;;;;0.78;100.00;100568.25;5025194;28;20345;-61
2023/03/06 06:11:57;;;;;;;;;;;;;;;0.79;100.00;100573.34;5016827;28;19914;-61
2023/03/06 06:14:22;;;;;;;;;;;;;;;0.82;100.00;100567.88;5022121;28;19917;-61
2023/03/06 06:16:48;;;;;;;;;;;;;;;0.82;100.00;100575.72;5027944;28;20430;-61
2023/03/06 06:19:22;;;;;;;;;;;;;;;0.85;100.00;100564.22;5022908;28;20394;-61
2023/03/06 06:21:49;;;;;;;;;;;;;;;0.88;100.00;100574.47;5016217;28;19913;-61
2023/03/06 06:24:15;;;;;;;;;;;;;;;0.90;100.00;100581.25;5018472;28;19914;-61
2023/03/06 06:26:40;;;;;;;;;;;;;;;0.90;100.00;100581.25;5025170;28;19913;-61
2023/03/06 06:29:05;;;;;;;;;;;;;;;0.95;100.00;100572.22;5022007;28;19980;-61
2023/03/06 06:31:30;;;;;;;;;;;;;;;0.95;100.00;100578.28;5023789;28;19928;-61
2023/03/06 06:33:55;;;;;;;;;;;;;;;0.98;100.00;100569.38;5018940;28;20712;-61
2023/03/06 06:36:21;;;;;;;;;;;;;;;1.01;100.00;100566.53;5023743;28;19925;-61
2023/03/06 06:38:47;;;;;;;;;;;;;;;1.02;100.00;100569.00;5021414;28;19935;-61
2023/03/06 06:41:12;;;;;;;;;;;;;;;1.05;100.00;100574.00;5016779;28;19913;-61
2023/03/06 06:43:37;;;;;;;;;;;;;;;1.09;100.00;100567.59;5025535;28;19917;-61
2023/03/06 06:46:03;;;;;;;;;;;;;;;1.12;100.00;100567.34;5014398;28;20306;-61
2023/03/06 06:48:28;;;;;;;;;;;;;;;1.19;100.00;100576.44;5026076;28;19964;-61
2023/03/06 06:50:55;;;;;;;;;;;;;;;1.18;100.00;100566.91;5015412;28;21370;-61
2023/03/06 06:53:21;;;;;;;;;;;;;;;1.26;100.00;100574.16;5019683;28;19917;-61
2023/03/06 06:55:46;;;;;;;;;;;;;;;1.29;100.00;100573.94;5021551;28;19948;-61
2023/03/06 06:58:11;;;;;;;;;;;;;;;1.33;100.00;100575.34;5024148;28;19913;-61
2023/03/06 07:00:36;;;;;;;;;;;;;;;1.36;100.00;100577.72;5033347;28;19940;-61
2023/03/06 07:03:01;;;;;;;;;;;;;;;1.37;100.00;100576.78;5026288;28;19916;-61
2023/03/06 07:05:26;;;;;;;;;;;;;;;1.42;100.00;100585.09;5031826;28;19921;-61
2023/03/06 07:07:52;;;;;;;;;;;;;;;1.44;100.00;100585.81;5025645;28;20016;-61
2023/03/06 07:10:17;;;;;;;;;;;;;;;1.46;100.00;100581.31;5024659;28;20383;-61
2023/03/06 07:12:42;;;;;;;;;;;;;;;1.50;100.00;100580.13;5027217;28;19948;-61
2023/03/06 07:15:10;;;;;;;;;;;;;;;1.53;100.00;100573.81;5028350;28;19913;-61
2023/03/06 07:17:36;;;;;;;;;;;;;;;1.56;100.00;100576.19;5024353;28;19927;-61
2023/03/06 07:20:01;;;;;;;;;;;;;;;1.60;100.00;100584.66;5028017;28;19917;-61
2023/03/06 07:22:26;;;;;;;;;;;;;;;1.62;100.00;100588.81;5024041;28;20446;-61
2023/03/06 07:24:52;;;;;;;;;;;;;;;1.65;100.00;100593.78;5025950;28;20452;-61
2023/03/06 07:27:17;;;;;;;;;;;;;;;1.69;100.00;100589.16;5034450;28;19912;-61
2023/03/06 07:29:42;;;;;;;;;;;;;;;1.69;100.00;100594.38;5031030;28;19960;-61
2023/03/06 07:32:07;;;;;;;;;;;;;;;1.70;100.00;100598.66;5028228;28;19917;-61
2023/03/06 07:34:32;;;;;;;;;;;;;;;1.76;100.00;100595.59;5031652;28;19913;-61
2023/03/06 07:36:58;;;;;;;;;;;;;;;1.76;100.00;100595.59;5024837;28;19941;-61
2023/03/06 07:39:23;;;;;;;;;;;;;;;1.80;100.00;100594.41;5028685;28;19917;-61
2023/03/06 07:41:48;;;;;;;;;;;;;;;1.85;100.00;100589.63;5021773;28;19920;-61
2023/03/06 07:44:13;;;;;;;;;;;;;;;1.88;100.00;100592.00;5025804;28;19917;-61
2023/03/06 07:46:38;;;;;;;;;;;;;;;1.95;100.00;100589.72;5023057;28;19914;-61
2023/03/06 07:49:03;;;;;;;;;;;;;;;1.94;100.00;100586.28;5026444;28;19913;-61
2023/03/06 07:51:29;;;;;;;;;;;;;;;2.03;100.00;100590.81;5025045;28;19913;-61
2023/03/06 07:53:54;;;;;;;;;;;;;;;2.00;100.00;100585.78;5026360;28;20004;-61
2023/03/06 07:56:19;;;;;;;;;;;;;;;2.07;100.00;100575.69;5020261;28;20001;-61
2023/03/06 07:58:45;;;;;;;;;;;;;;;2.11;100.00;100582.31;5028100;28;19959;-61
2023/03/06 08:01:12;;;;;;;;;;;;;;;2.18;100.00;100591.34;5026443;28;19916;-61
2023/03/06 08:03:37;;;;;;;;;;;;;;;2.22;100.00;100587.53;5025913;28;20297;-61
2023/03/06 08:06:06;;;;;;;;;;;;;;;2.28;100.00;100580.97;5028319;28;20011;-61
2023/03/06 08:08:32;;;;;;;;;;;;;;;2.33;100.00;100581.44;5024377;28;19924;-61
2023/03/06 08:10:57;;;;;;;;;;;;;;;2.36;100.00;100583.81;5026476;28;19923;-61
2023/03/06 08:13:22;;;;;;;;;;;;;;;2.42;100.00;100588.56;5029055;28;19921;-61
2023/03/06 08:15:48;;;;;;;;;;;;;;;2.48;100.00;100586.25;5026882;28;19913;-61
2023/03/06 08:18:13;;;;;;;;;;;;;;;2.53;100.00;100585.88;5026863;28;20008;-61
2023/03/06 08:20:38;;;;;;;;;;;;;;;2.59;100.00;100592.41;5024349;28;20033;-61
2023/03/06 08:23:03;;;;;;;;;;;;;;;2.63;100.00;100597.28;5029224;28;20902;-61
2023/03/06 08:25:28;;;;;;;;;;;;;;;2.71;100.00;100592.25;5030265;28;19956;-61
2023/03/06 08:27:53;;;;;;;;;;;;;;;2.72;100.00;100596.53;5025665;28;19945;-61
2023/03/06 08:30:20;;;;;;;;;;;;;;;2.71;100.00;100591.41;5023084;28;19913;-61
2023/03/06 08:32:45;;;;;;;;;;;;;;;2.73;100.00;100587.72;5025824;28;20003;-61
2023/03/06 08:35:10;;;;;;;;;;;;;;;2.80;100.00;100588.84;5019153;28;19987;-61
2023/03/06 08:37:36;;;;;;;;;;;;;;;2.80;100.00;100591.47;5025639;28;20475;-61
2023/03/06 08:40:03;;;;;;;;;;;;;;;2.88;100.00;100592.63;5027085;28;19925;-61
2023/03/06 08:42:28;;;;;;;;;;;;;;;2.97;100.00;100597.13;5021053;28;20444;-61
2023/03/06 08:44:53;;;;;;;;;;;;;;;3.00;100.00;100591.63;5026858;28;19922;-61
2023/03/06 08:47:20;;;;;;;;;;;;;;;3.03;100.00;100594.81;5021386;28;19941;-61
2023/03/06 08:49:45;;;;;;;;;;;;;;;3.14;100.00;100590.47;5027451;28;19996;-61
2023/03/06 08:52:10;;;;;;;;;;;;;;;3.19;100.00;100589.13;5029258;28;19940;-61
2023/03/06 08:54:36;;;;;;;;;;;;;;;3.25;100.00;100587.78;5021774;28;19924;-61
2023/03/06 08:57:01;;;;;;;;;;;;;;;3.27;100.00;100591.94;5021454;28;19921;-61
2023/03/06 08:59:26;;;;;;;;;;;;;;;3.36;100.00;100596.41;5022989;28;20040;-61
2023/03/06 09:01:52;;;;;;;;;;;;;;;3.42;100.00;100590.63;5022565;28;19917;-61
2023/03/06 09:04:17;;;;;;;;;;;;;;;3.43;100.00;100596.69;5026967;28;19917;-61
2023/03/06 09:06:43;;;;;;;;;;;;;;;3.47;100.00;100586.75;5024093;28;19921;-61
2023/03/06 09:09:08;;;;;;;;;;;;;;;3.51;100.00;100593.44;5024390;28;19964;-61
2023/03/06 09:11:33;;;;;;;;;;;;;;;3.55;100.00;100600.09;5026752;28;19940;-61
2023/03/06 09:13:59;;;;;;;;;;;;;;;3.58;100.00;100594.56;5029130;28;20004;-61
2023/03/06 09:16:24;;;;;;;;;;;;;;;3.61;100.00;100591.69;5024663;28;19920;-61
2023/03/06 09:18:51;;;;;;;;;;;;;;;3.67;100.00;100593.78;5025107;28;19996;-61
2023/03/06 09:21:17;;;;;;;;;;;;;;;3.75;100.00;100596.56;5018978;28;19918;-61
2023/03/06 09:23:42;;;;;;;;;;;;;;;3.82;100.00;100591.63;5023922;28;20297;-61
2023/03/06 09:26:07;;;;;;;;;;;;;;;3.85;100.00;100594.00;5023683;28;20393;-61
2023/03/06 09:28:37;;;;;;;;;;;;;;;3.85;99.95;100592.19;5026367;28;19924;-61
2023/03/06 09:31:06;;;;;;;;;;;;;;;3.88;99.56;100601.59;5023041;28;19917;-61
2023/03/06 09:33:32;;;;;;;;;;;;;;;3.91;99.77;100596.91;5021512;28;19925;-61
2023/03/06 09:35:57;;;;;;;;;;;;;;;3.98;99.47;100603.28;5021537;28;19918;-61
2023/03/06 09:38:24;;;;;;;;;;;;;;;4.03;99.21;100601.06;5024532;28;19924;-61
2023/03/06 09:41:04;;;;;;;;;;;;;;;4.11;99.12;100596.97;5027432;28;19960;-61
2023/03/06 09:43:29;;;;;;;;;;;;;;;4.17;98.75;100596.41;5026018;28;19913;-61
2023/03/06 09:45:55;;;;;;;;;;;;;;;4.21;98.62;100593.38;5024962;28;19963;-61
2023/03/06 09:48:25;;;;;;;;;;;;;;;4.27;98.55;100600.72;5023316;28;19925;-61
2023/03/06 09:50:58;;;;;;;;;;;;;;;4.30;97.86;100603.06;5026321;28;19917;-63
2023/03/06 09:53:36;;;;;;;;;;;;;;;4.28;97.93;100597.13;5025011;28;20008;-62
2023/03/06 09:56:04;;;;;;;;;;;;;;;4.29;97.61;100584.81;5026043;28;20382;-62
2023/03/06 09:58:33;;;;;;;;;;;;;;;4.37;97.14;100599.94;5020511;28;19913;-62
2023/03/06 10:00:58;;;;;;;;;;;;;;;4.38;96.75;100604.22;5027082;28;19939;-61
2023/03/06 10:03:29;;;;;;;;;;;;;;;4.32;96.03;100601.13;5022549;28;20024;-62
2023/03/06 10:06:02;;;;;;;;;;;;;;;4.35;95.98;100594.81;5024446;28;19919;-62
2023/03/06 10:08:44;;;;;;;;;;;;;;;4.42;95.55;100589.81;5025624;28;19977;-61
2023/03/06 10:11:11;;;;;;;;;;;;;;;4.51;95.36;100589.00;5022265;28;20382;-62
2023/03/06 10:13:44;;;;;;;;;;;;;;;4.57;95.15;100591.91;5026737;28;19917;-62
2023/03/06 10:16:26;;;;;;;;;;;;;;;4.62;94.91;100592.31;5025343;28;19917;-62
2023/03/06 10:18:53;;;;;;;;;;;;;;;4.62;93.69;100586.22;5022100;28;19925;-62
2023/03/06 10:21:24;;;;;;;;;;;;;;;4.54;93.34;100581.66;5023261;28;19928;-62
2023/03/06 10:23:52;;;;;;;;;;;;;;;4.59;93.54;100579.44;5019909;28;20325;-62
2023/03/06 10:26:18;;;;;;;;;;;;;;;4.66;93.15;100585.00;5023344;28;19987;-62
2023/03/06 10:28:56;;;;;;;;;;;;;;;4.72;93.14;100583.59;5022937;28;20378;-62
2023/03/06 10:31:22;;;;;;;;;;;;;;;4.74;92.58;100579.03;5014354;28;19964;-62
2023/03/06 10:33:52;;;;;;;;;;;;;;;4.77;92.02;100584.00;5014883;28;19918;-61
2023/03/06 10:36:18;;;;;;;;;;;;;;;4.84;92.00;100580.69;5017567;28;19917;-62
2023/03/06 10:38:47;;;;;;;;;;;;;;;4.95;92.31;100583.19;5023537;28;20374;-62
2023/03/06 10:41:12;;;;;;;;;;;;;;;5.03;92.02;100582.47;5011797;28;20417;-62
2023/03/06 10:43:39;;;;;;;;;;;;;;;4.99;90.86;100583.72;5017248;28;19943;-62
2023/03/06 10:46:05;;;;;;;;;;;;;;;4.97;90.53;100596.19;5021724;28;19947;-62
2023/03/06 10:48:34;;;;;;;;;;;;;;;4.92;89.99;100582.63;5015431;28;19917;-62
2023/03/06 10:51:14;;;;;;;;;;;;;;;4.88;90.51;100583.84;5024812;28;19920;-62
2023/03/06 10:53:50;;;;;;;;;;;;;;;4.97;90.91;100590.94;5021792;28;19918;-62
2023/03/06 10:56:27;;;;;;;;;;;;;;;4.99;91.36;100581.09;5011944;28;19924;-62
2023/03/06 10:59:12;;;;;;;;;;;;;;;5.02;90.93;100582.59;5021181;28;20287;-62
2023/03/06 11:01:38;;;;;;;;;;;;;;;4.98;90.15;100589.97;5009384;28;19972;-62
2023/03/06 11:04:13;;;;;;;;;;;;;;;4.93;89.78;100589.56;5017882;28;19923;-62
2023/03/06 11:06:39;;;;;;;;;;;;;;;4.82;89.60;100587.88;5023428;28;19917;-61
2023/03/06 11:09:21;;;;;;;;;;;;;;;4.80;89.01;100584.56;5010708;28;20000;-62
2023/03/06 11:11:46;;;;;;;;;;;;;;;4.89;89.61;100594.25;5017795;28;19920;-62
2023/03/06 11:14:16;;;;;;;;;;;;;;;4.87;89.40;100583.03;5021279;28;20012;-62
2023/03/06 11:16:51;;;;;;;;;;;;;;;4.92;89.27;100587.88;5025199;28;19921;-62
2023/03/06 11:19:18;;;;;;;;;;;;;;;4.97;88.59;100580.41;5023472;28;19925;-62
2023/03/06 11:21:57;;;;;;;;;;;;;;;4.97;88.64;100575.13;5022363;28;19917;-61
2023/03/06 11:24:22;;;;;;;;;;;;;;;5.09;88.81;100575.81;5015991;28;19949;-62
2023/03/06 11:26:51;;;;;;;;;;;;;;;5.20;88.85;100575.63;5017969;28;19949;-61
2023/03/06 11:29:22;;;;;;;;;;;;;;;5.26;88.92;100567.19;5013345;28;19924;-61
2023/03/06 11:31:54;;;;;;;;;;;;;;;5.36;88.37;100569.78;5007881;28;19921;-62
2023/03/06 11:34:23;;;;;;;;;;;;;;;5.51;88.29;100565.72;5011929;28;19967;-62
2023/03/06 11:36:52;;;;;;;;;;;;;;;5.56;87.55;100566.94;5020696;28;19920;-61
2023/03/06 11:39:28;;;;;;;;;;;;;;;5.64;87.53;100560.09;5014373;28;20609;-62
2023/03/06 11:41:56;;;;;;;;;;;;;;;5.72;86.44;100560.19;5013817;28;20341;-61
2023/03/06 11:44:33;;;;;;;;;;;;;;;5.75;86.45;100555.47;5015762;28;19964;-62
2023/03/06 11:47:04;;;;;;;;;;;;;;;5.70;85.59;100552.44;5020536;28;19913;-62
2023/03/06 11:49:32;;;;;;;;;;;;;;;5.70;85.13;100554.25;5024521;28;19913;-62
2023/03/06 11:52:02;;;;;;;;;;;;;;;5.70;85.30;100546.34;5020801;28;19960;-62
2023/03/06 11:54:27;;;;;;;;;;;;;;;5.68;84.21;100549.13;5022762;28;20482;-62
2023/03/06 11:57:00;;;;;;;;;;;;;;;5.72;84.02;100544.38;5023009;28;20000;-62
2023/03/06 11:59:35;;;;;;;;;;;;;;;5.74;83.62;100532.72;5020200;28;19917;-61
2023/03/06 12:02:27;;;;;;;;;;;;;;;5.73;83.36;100530.25;5021969;28;19917;-62
2023/03/06 12:04:58;;;;;;;;;;;;;;;5.80;83.81;100526.91;5023982;28;19913;-61
2023/03/06 12:07:34;;;;;;;;;;;;;;;5.87;83.99;100522.69;5021403;28;20005;-62
2023/03/06 12:09:59;;;;;;;;;;;;;;;5.93;83.55;100523.09;5019616;28;19913;-61
2023/03/06 12:12:39;;;;;;;;;;;;;;;5.89;82.97;100523.41;5011218;28;19920;-62
2023/03/06 12:15:16;;;;;;;;;;;;;;;5.92;82.69;100521.44;5014186;28;19940;-62
2023/03/06 12:18:06;;;;;;;;;;;;;;;5.89;82.21;100522.53;5019244;28;19957;-62
2023/03/06 12:20:50;;;;;;;;;;;;;;;5.84;82.53;100522.97;5010611;28;19933;-61
2023/03/06 12:23:32;;;;;;;;;;;;;;;5.73;81.66;100515.25;5019082;28;19919;-62
2023/03/06 12:26:16;;;;;;;;;;;;;;;5.64;81.21;100516.16;5013938;28;19971;-62
2023/03/06 12:28:57;;;;;;;;;;;;;;;5.57;81.29;100512.44;5019214;28;19921;-61
2023/03/06 12:31:31;;;;;;;;;;;;;;;5.55;81.58;100506.50;5020809;28;20364;-61
2023/03/06 12:34:06;;;;;;;;;;;;;;;5.58;82.26;100508.84;5016655;28;19975;-62
2023/03/06 12:36:40;;;;;;;;;;;;;;;5.68;82.39;100506.16;5020732;28;19913;-62
2023/03/06 12:39:27;;;;;;;;;;;;;;;5.78;82.72;100499.00;5028288;28;19913;-62
2023/03/06 12:42:05;;;;;;;;;;;;;;;5.87;82.40;100496.34;5018528;28;19925;-62
2023/03/06 12:44:39;;;;;;;;;;;;;;;5.97;82.80;100493.66;5019310;28;20383;-62